sensor_id;sensor_type;location;lat;lon;timestamp;pressure;altitude;pressure_sealevel;temperature;humidity
21838;BME280;11081;45.946;6.140;2023-03-14T00:00:07;94122.78;;;10.87;88.25
21838;BME280;11081;45.946;6.140;2023-03-14T00:02:38;94128.50;;;10.84;87.58
21838;BME280;11081;45.946;6.140;2023-03-14T00:05:08;94151.41;;;10.82;88.07
21838;BME280;11081;45.946;6.140;2023-03-14T00:07:37;94167.47;;;10.69;87.95
21838;BME280;11081;45.946;6.140;2023-03-14T00:10:08;94181.06;;;10.71;88.15
21838;BME280;11081;45.946;6.140;2023-03-14T00:12:36;94214.53;;;10.79;88.62
21838;BME280;11081;45.946;6.140;2023-03-14T00:15:05;94226.47;;;10.70;88.16
21838;BME280;11081;45.946;6.140;2023-03-14T00:17:35;94222.94;;;10.37;89.83
21838;BME280;11081;45.946;6.140;2023-03-14T00:20:06;94241.72;;;10.01;92.62
21838;BME280;11081;45.946;6.140;2023-03-14T00:22:37;94240.53;;;9.92;94.27
21838;BME280;11081;45.946;6.140;2023-03-14T00:25:07;94235.97;;;9.82;93.88
21838;BME280;11081;45.946;6.140;2023-03-14T00:27:36;94238.78;;;10.14;92.35
21838;BME280;11081;45.946;6.140;2023-03-14T00:30:05;94238.66;;;10.43;92.85
21838;BME280;11081;45.946;6.140;2023-03-14T00:32:34;94249.75;;;10.55;90.80
21838;BME280;11081;45.946;6.140;2023-03-14T00:35:03;94271.72;;;10.59;91.29
21838;BME280;11081;45.946;6.140;2023-03-14T00:37:32;94273.78;;;10.57;91.36
21838;BME280;11081;45.946;6.140;2023-03-14T00:40:00;94287.38;;;10.59;89.62
21838;BME280;11081;45.946;6.140;2023-03-14T00:42:32;94300.19;;;10.60;89.37
21838;BME280;11081;45.946;6.140;2023-03-14T00:45:00;94296.88;;;10.65;88.70
21838;BME280;11081;45.946;6.140;2023-03-14T00:47:28;94294.16;;;10.60;89.60
21838;BME280;11081;45.946;6.140;2023-03-14T00:49:56;94295.63;;;10.51;90.99
21838;BME280;11081;45.946;6.140;2023-03-14T00:52:24;94293.09;;;10.56;90.25
21838;BME280;11081;45.946;6.140;2023-03-14T00:54:53;94281.22;;;10.65;89.86
21838;BME280;11081;45.946;6.140;2023-03-14T00:57:21;94287.47;;;10.64;88.87
21838;BME280;11081;45.946;6.140;2023-03-14T00:59:50;94288.50;;;10.63;88.89
21838;BME280;11081;45.946;6.140;2023-03-14T01:02:19;94289.53;;;10.62;90.13
21838;BME280;11081;45.946;6.140;2023-03-14T01:04:48;94277.56;;;10.66;90.02
21838;BME280;11081;45.946;6.140;2023-03-14T01:07:16;94258.44;;;10.60;90.83
21838;BME280;11081;45.946;6.140;2023-03-14T01:09:44;94256.16;;;10.64;90.35
21838;BME280;11081;45.946;6.140;2023-03-14T01:12:14;94246.75;;;10.63;89.83
21838;BME280;11081;45.946;6.140;2023-03-14T01:14:42;94243.88;;;10.64;91.05
21838;BME280;11081;45.946;6.140;2023-03-14T01:17:10;94241.19;;;10.59;90.96
21838;BME280;11081;45.946;6.140;2023-03-14T01:19:38;94244.06;;;10.58;91.67
21838;BME280;11081;45.946;6.140;2023-03-14T01:22:06;94248.78;;;10.61;92.18
21838;BME280;11081;45.946;6.140;2023-03-14T01:24:36;94243.09;;;10.64;91.35
21838;BME280;11081;45.946;6.140;2023-03-14T01:27:04;94238.97;;;10.68;90.58
21838;BME280;11081;45.946;6.140;2023-03-14T01:29:34;94237.34;;;10.62;91.14
21838;BME280;11081;45.946;6.140;2023-03-14T01:32:02;94239.47;;;10.65;90.31
21838;BME280;11081;45.946;6.140;2023-03-14T01:34:30;94242.63;;;10.67;89.76
21838;BME280;11081;45.946;6.140;2023-03-14T01:36:58;94233.25;;;10.71;89.50
21838;BME280;11081;45.946;6.140;2023-03-14T01:39:26;94231.19;;;10.73;89.15
21838;BME280;11081;45.946;6.140;2023-03-14T01:41:55;94249.91;;;10.65;88.97
21838;BME280;11081;45.946;6.140;2023-03-14T01:44:23;94249.34;;;10.63;89.62
21838;BME280;11081;45.946;6.140;2023-03-14T01:46:53;94236.78;;;10.60;89.15
21838;BME280;11081;45.946;6.140;2023-03-14T01:49:24;94224.94;;;10.52;89.85
21838;BME280;11081;45.946;6.140;2023-03-14T01:52:07;94212.94;;;10.51;90.67
21838;BME280;11081;45.946;6.140;2023-03-14T01:54:39;94194.91;;;10.50;90.87
21838;BME280;11081;45.946;6.140;2023-03-14T01:57:12;94169.28;;;10.42;90.97
21838;BME280;11081;45.946;6.140;2023-03-14T01:59:46;94163.38;;;10.29;92.11
21838;BME280;11081;45.946;6.140;2023-03-14T02:02:17;94152.34;;;10.22;92.60
21838;BME280;11081;45.946;6.140;2023-03-14T02:04:45;94163.69;;;10.16;92.97
21838;BME280;11081;45.946;6.140;2023-03-14T02:07:18;94145.41;;;10.11;92.98
21838;BME280;11081;45.946;6.140;2023-03-14T02:10:07;94148.06;;;10.16;91.37
21838;BME280;11081;45.946;6.140;2023-03-14T02:12:36;94160.19;;;10.22;90.84
21838;BME280;11081;45.946;6.140;2023-03-14T02:15:16;94146.13;;;10.23;90.96
21838;BME280;11081;45.946;6.140;2023-03-14T02:17:58;94154.84;;;10.17;91.01
21838;BME280;11081;45.946;6.140;2023-03-14T02:20:45;94165.16;;;10.24;89.72
21838;BME280;11081;45.946;6.140;2023-03-14T02:23:20;94161.22;;;10.21;90.64
21838;BME280;11081;45.946;6.140;2023-03-14T02:25:57;94154.38;;;10.20;89.20
21838;BME280;11081;45.946;6.140;2023-03-14T02:28:27;94150.28;;;10.24;89.47
21838;BME280;11081;45.946;6.140;2023-03-14T02:30:59;94154.78;;;10.12;89.63
21838;BME280;11081;45.946;6.140;2023-03-14T02:33:31;94151.09;;;10.08;89.95
21838;BME280;11081;45.946;6.140;2023-03-14T02:36:02;94151.09;;;10.08;89.19
21838;BME280;11081;45.946;6.140;2023-03-14T02:38:35;94143.81;;;10.10;88.01
21838;BME280;11081;45.946;6.140;2023-03-14T02:41:05;94140.38;;;10.04;87.93
21838;BME280;11081;45.946;6.140;2023-03-14T02:43:41;94119.69;;;9.98;86.96
21838;BME280;11081;45.946;6.140;2023-03-14T02:46:13;94126.47;;;9.99;87.22
21838;BME280;11081;45.946;6.140;2023-03-14T02:48:44;94122.53;;;9.96;87.57
21838;BME280;11081;45.946;6.140;2023-03-14T02:51:15;94127.75;;;9.96;86.34
21838;BME280;11081;45.946;6.140;2023-03-14T02:53:46;94122.22;;;9.93;86.79
21838;BME280;11081;45.946;6.140;2023-03-14T02:56:14;94115.50;;;9.97;85.65
21838;BME280;11081;45.946;6.140;2023-03-14T02:58:44;94111.63;;;9.99;85.17
21838;BME280;11081;45.946;6.140;2023-03-14T03:01:44;94104.03;;;9.98;84.84
21838;BME280;11081;45.946;6.140;2023-03-14T03:04:12;94094.09;;;9.95;84.78
21838;BME280;11081;45.946;6.140;2023-03-14T03:06:44;94069.63;;;9.96;84.26
21838;BME280;11081;45.946;6.140;2023-03-14T03:09:14;94088.09;;;9.94;84.39
21838;BME280;11081;45.946;6.140;2023-03-14T03:11:42;94084.47;;;9.95;84.13
21838;BME280;11081;45.946;6.140;2023-03-14T03:14:17;94076.84;;;9.89;84.13
21838;BME280;11081;45.946;6.140;2023-03-14T03:16:45;94069.50;;;9.86;85.06
21838;BME280;11081;45.946;6.140;2023-03-14T03:19:13;94066.84;;;9.81;84.37
21838;BME280;11081;45.946;6.140;2023-03-14T03:21:42;94072.06;;;9.81;84.55
21838;BME280;11081;45.946;6.140;2023-03-14T03:24:11;94064.31;;;9.86;84.27
21838;BME280;11081;45.946;6.140;2023-03-14T03:26:39;94052.31;;;9.85;83.83
21838;BME280;11081;45.946;6.140;2023-03-14T03:29:09;94061.16;;;9.84;83.15
21838;BME280;11081;45.946;6.140;2023-03-14T03:31:39;94043.47;;;9.86;83.00
21838;BME280;11081;45.946;6.140;2023-03-14T03:34:07;94046.00;;;9.81;84.05
21838;BME280;11081;45.946;6.140;2023-03-14T03:36:35;94063.22;;;9.82;84.06
21838;BME280;11081;45.946;6.140;2023-03-14T03:39:03;94049.69;;;9.85;84.31
21838;BME280;11081;45.946;6.140;2023-03-14T03:41:31;94061.16;;;9.84;83.44
21838;BME280;11081;45.946;6.140;2023-03-14T03:44:00;94046.00;;;9.81;83.87
21838;BME280;11081;45.946;6.140;2023-03-14T03:46:30;94050.25;;;9.87;82.66
21838;BME280;11081;45.946;6.140;2023-03-14T03:49:00;94048.38;;;9.82;83.33
21838;BME280;11081;45.946;6.140;2023-03-14T03:51:28;94050.44;;;9.80;83.65
21838;BME280;11081;45.946;6.140;2023-03-14T03:53:57;94052.16;;;9.74;83.35
21838;BME280;11081;45.946;6.140;2023-03-14T03:56:31;94052.16;;;9.74;84.00
21838;BME280;11081;45.946;6.140;2023-03-14T03:58:59;94038.91;;;9.76;82.89
21838;BME280;11081;45.946;6.140;2023-03-14T04:01:27;94039.09;;;9.69;82.95
21838;BME280;11081;45.946;6.140;2023-03-14T04:03:57;94033.38;;;9.72;83.40
21838;BME280;11081;45.946;6.140;2023-03-14T04:06:28;94029.75;;;9.73;82.69
21838;BME280;11081;45.946;6.140;2023-03-14T04:08:58;94046.97;;;9.74;82.40
21838;BME280;11081;45.946;6.140;2023-03-14T04:11:46;94066.28;;;9.78;83.17
21838;BME280;11081;45.946;6.140;2023-03-14T04:14:14;94073.09;;;9.80;82.77
21838;BME280;11081;45.946;6.140;2023-03-14T04:16:43;94060.06;;;9.80;82.15
21838;BME280;11081;45.946;6.140;2023-03-14T04:19:14;94046.47;;;9.77;82.25
21838;BME280;11081;45.946;6.140;2023-03-14T04:21:43;94037.63;;;9.78;82.04
21838;BME280;11081;45.946;6.140;2023-03-14T04:24:14;94024.84;;;9.77;81.55
21838;BME280;11081;45.946;6.140;2023-03-14T04:26:45;94014.16;;;9.78;82.01
21838;BME280;11081;45.946;6.140;2023-03-14T04:29:14;94008.41;;;9.76;82.37
21838;BME280;11081;45.946;6.140;2023-03-14T04:31:44;94003.22;;;9.76;82.28
21838;BME280;11081;45.946;6.140;2023-03-14T04:34:12;93983.16;;;9.77;82.15
21838;BME280;11081;45.946;6.140;2023-03-14T04:36:48;93971.16;;;9.76;81.32
21838;BME280;11081;45.946;6.140;2023-03-14T04:39:20;93963.28;;;9.71;80.92
21838;BME280;11081;45.946;6.140;2023-03-14T04:42:04;93952.09;;;9.70;81.28
21838;BME280;11081;45.946;6.140;2023-03-14T04:44:35;93956.00;;;9.73;80.71
21838;BME280;11081;45.946;6.140;2023-03-14T04:47:04;93945.88;;;9.76;81.64
21838;BME280;11081;45.946;6.140;2023-03-14T04:49:33;93938.03;;;9.71;80.80
21838;BME280;11081;45.946;6.140;2023-03-14T04:52:03;93942.16;;;9.67;80.75
21838;BME280;11081;45.946;6.140;2023-03-14T04:54:34;93942.16;;;9.67;81.29
21838;BME280;11081;45.946;6.140;2023-03-14T04:57:02;93947.38;;;9.67;81.04
21838;BME280;11081;45.946;6.140;2023-03-14T04:59:33;93935.38;;;9.66;80.77
21838;BME280;11081;45.946;6.140;2023-03-14T05:02:14;93935.81;;;9.58;81.44
21838;BME280;11081;45.946;6.140;2023-03-14T05:05:03;93935.25;;;9.56;81.24
21838;BME280;11081;45.946;6.140;2023-03-14T05:07:56;93935.25;;;9.56;81.70
21838;BME280;11081;45.946;6.140;2023-03-14T05:10:51;93936.81;;;9.57;80.60
21838;BME280;11081;45.946;6.140;2023-03-14T05:13:46;93940.00;;;9.59;81.51
21838;BME280;11081;45.946;6.140;2023-03-14T05:16:31;93945.78;;;9.66;80.81
21838;BME280;11081;45.946;6.140;2023-03-14T05:19:22;93960.84;;;9.59;81.39
21838;BME280;11081;45.946;6.140;2023-03-14T05:22:09;93945.78;;;9.66;81.26
21838;BME280;11081;45.946;6.140;2023-03-14T05:24:57;93940.59;;;9.66;80.72
21838;BME280;11081;45.946;6.140;2023-03-14T05:27:25;93940.59;;;9.66;80.04
21838;BME280;11081;45.946;6.140;2023-03-14T05:30:29;93931.75;;;9.67;80.67
21838;BME280;11081;45.946;6.140;2023-03-14T05:33:17;93936.41;;;9.65;80.26
21838;BME280;11081;45.946;6.140;2023-03-14T05:36:12;93938.47;;;9.63;82.00
21838;BME280;11081;45.946;6.140;2023-03-14T05:39:03;93937.94;;;9.61;81.73
21838;BME280;11081;45.946;6.140;2023-03-14T05:41:51;93947.72;;;9.54;82.17
21838;BME280;11081;45.946;6.140;2023-03-14T05:44:43;93949.00;;;9.52;82.87
21838;BME280;11081;45.946;6.140;2023-03-14T05:47:31;93948.22;;;9.51;82.33
21838;BME280;11081;45.946;6.140;2023-03-14T05:50:18;93949.69;;;9.42;82.25
21838;BME280;11081;45.946;6.140;2023-03-14T05:53:12;93951.03;;;9.23;84.97
21838;BME280;11081;45.946;6.140;2023-03-14T05:55:51;93944.41;;;9.37;83.67
21838;BME280;11081;45.946;6.140;2023-03-14T05:58:41;93953.34;;;9.41;85.63
21838;BME280;11081;45.946;6.140;2023-03-14T06:01:29;93949.06;;;9.35;86.70
21838;BME280;11081;45.946;6.140;2023-03-14T06:04:07;93954.59;;;9.38;86.57
21838;BME280;11081;45.946;6.140;2023-03-14T06:06:35;93958.53;;;9.41;88.83
21838;BME280;11081;45.946;6.140;2023-03-14T06:09:05;93965.31;;;9.42;88.72
21838;BME280;11081;45.946;6.140;2023-03-14T06:11:36;93970.53;;;9.42;88.87
21838;BME280;11081;45.946;6.140;2023-03-14T06:14:07;93965.81;;;9.39;88.99
21838;BME280;11081;45.946;6.140;2023-03-14T06:16:39;93967.69;;;9.43;89.77
21838;BME280;11081;45.946;6.140;2023-03-14T06:19:07;93969.78;;;9.46;90.39
21838;BME280;11081;45.946;6.140;2023-03-14T06:21:36;93975.72;;;9.42;89.81
21838;BME280;11081;45.946;6.140;2023-03-14T06:24:04;93971.19;;;9.32;90.21
21838;BME280;11081;45.946;6.140;2023-03-14T06:26:38;93973.03;;;9.37;89.47
21838;BME280;11081;45.946;6.140;2023-03-14T06:29:09;93976.69;;;9.36;88.99
21838;BME280;11081;45.946;6.140;2023-03-14T06:31:38;93976.34;;;9.49;88.42
21838;BME280;11081;45.946;6.140;2023-03-14T06:34:07;93975.91;;;9.57;88.53
21838;BME280;11081;45.946;6.140;2023-03-14T06:36:35;93989.53;;;9.64;87.83
21838;BME280;11081;45.946;6.140;2023-03-14T06:39:03;93993.78;;;9.70;87.91
21838;BME280;11081;45.946;6.140;2023-03-14T06:41:34;93991.13;;;9.65;88.46
21838;BME280;11081;45.946;6.140;2023-03-14T06:44:02;93990.03;;;9.61;87.87
21838;BME280;11081;45.946;6.140;2023-03-14T06:46:32;93997.16;;;9.49;88.09
21838;BME280;11081;45.946;6.140;2023-03-14T06:49:00;94003.94;;;9.50;90.09
21838;BME280;11081;45.946;6.140;2023-03-14T06:51:28;94013.22;;;9.41;90.06
21838;BME280;11081;45.946;6.140;2023-03-14T06:53:56;94014.16;;;9.35;90.63
21838;BME280;11081;45.946;6.140;2023-03-14T06:56:27;94015.19;;;9.34;90.74
21838;BME280;11081;45.946;6.140;2023-03-14T06:58:56;94023.53;;;9.36;90.36
21838;BME280;11081;45.946;6.140;2023-03-14T07:01:29;94023.53;;;9.36;90.30
21838;BME280;11081;45.946;6.140;2023-03-14T07:04:06;94023.88;;;9.39;89.52
21838;BME280;11081;45.946;6.140;2023-03-14T07:06:36;94028.31;;;9.39;88.90
21838;BME280;11081;45.946;6.140;2023-03-14T07:09:06;94026.63;;;9.33;88.50
21838;BME280;11081;45.946;6.140;2023-03-14T07:11:38;94021.97;;;9.35;88.93
21838;BME280;11081;45.946;6.140;2023-03-14T07:14:06;94028.75;;;9.36;88.99
21838;BME280;11081;45.946;6.140;2023-03-14T07:16:34;94031.16;;;9.37;88.90
21838;BME280;11081;45.946;6.140;2023-03-14T07:19:03;94030.81;;;9.34;88.94
21838;BME280;11081;45.946;6.140;2023-03-14T07:21:32;94034.94;;;9.30;88.50
21838;BME280;11081;45.946;6.140;2023-03-14T07:24:06;94030.69;;;9.24;89.28
21838;BME280;11081;45.946;6.140;2023-03-14T07:26:34;94043.16;;;9.22;88.85
21838;BME280;11081;45.946;6.140;2023-03-14T07:29:02;94034.31;;;9.23;89.73
21838;BME280;11081;45.946;6.140;2023-03-14T07:31:31;94031.78;;;9.28;88.66
21838;BME280;11081;45.946;6.140;2023-03-14T07:34:00;94043.16;;;9.22;89.65
21838;BME280;11081;45.946;6.140;2023-03-14T07:36:34;94052.78;;;9.21;89.35
21838;BME280;11081;45.946;6.140;2023-03-14T07:39:03;94053.50;;;9.16;89.33
21838;BME280;11081;45.946;6.140;2023-03-14T07:41:58;94053.91;;;9.08;90.53
21838;BME280;11081;45.946;6.140;2023-03-14T07:44:49;94054.44;;;9.10;89.62
21838;BME280;11081;45.946;6.140;2023-03-14T07:47:17;94064.78;;;9.05;89.14
21838;BME280;11081;45.946;6.140;2023-03-14T07:49:45;94067.31;;;9.00;89.36
21838;BME280;11081;45.946;6.140;2023-03-14T07:52:14;94067.38;;;9.05;89.78
21838;BME280;11081;45.946;6.140;2023-03-14T07:54:42;94080.63;;;9.04;89.22
21838;BME280;11081;45.946;6.140;2023-03-14T07:57:10;94074.09;;;9.01;89.72
21838;BME280;11081;45.946;6.140;2023-03-14T07:59:38;94075.03;;;8.95;90.33
21838;BME280;11081;45.946;6.140;2023-03-14T08:02:08;94091.22;;;8.97;90.50
21838;BME280;11081;45.946;6.140;2023-03-14T08:04:39;94094.50;;;8.93;90.80
21838;BME280;11081;45.946;6.140;2023-03-14T08:07:07;94099.94;;;8.91;89.75
21838;BME280;11081;45.946;6.140;2023-03-14T08:09:36;94110.81;;;8.88;91.51
21838;BME280;11081;45.946;6.140;2023-03-14T08:12:05;94115.97;;;8.83;91.35
21838;BME280;11081;45.946;6.140;2023-03-14T08:14:33;94119.66;;;8.87;92.28
21838;BME280;11081;45.946;6.140;2023-03-14T08:17:01;94120.75;;;8.91;90.22
21838;BME280;11081;45.946;6.140;2023-03-14T08:19:29;94126.91;;;8.85;91.61
21838;BME280;11081;45.946;6.140;2023-03-14T08:21:57;94140.47;;;8.87;92.04
21838;BME280;11081;45.946;6.140;2023-03-14T08:24:25;94142.69;;;8.95;90.64
21838;BME280;11081;45.946;6.140;2023-03-14T08:26:54;94141.22;;;8.99;90.24
21838;BME280;11081;45.946;6.140;2023-03-14T08:29:22;94141.56;;;8.91;90.66
21838;BME280;11081;45.946;6.140;2023-03-14T08:31:50;94141.03;;;8.89;90.42
21838;BME280;11081;45.946;6.140;2023-03-14T08:34:18;94146.16;;;8.84;90.58
21838;BME280;11081;45.946;6.140;2023-03-14T08:36:46;94151.91;;;8.86;90.04
21838;BME280;11081;45.946;6.140;2023-03-14T08:39:14;94140.94;;;8.84;90.29
21838;BME280;11081;45.946;6.140;2023-03-14T08:41:42;94146.78;;;8.91;91.30
21838;BME280;11081;45.946;6.140;2023-03-14T08:44:12;94158.28;;;8.95;90.44
21838;BME280;11081;45.946;6.140;2023-03-14T08:46:43;94157.19;;;8.91;91.06
21838;BME280;11081;45.946;6.140;2023-03-14T08:49:11;94171.69;;;8.87;91.44
21838;BME280;11081;45.946;6.140;2023-03-14T08:51:41;94174.22;;;8.82;92.25
21838;BME280;11081;45.946;6.140;2023-03-14T08:54:10;94179.88;;;8.79;92.15
21838;BME280;11081;45.946;6.140;2023-03-14T08:56:38;94197.00;;;8.75;91.38
21838;BME280;11081;45.946;6.140;2023-03-14T08:59:06;94200.03;;;8.72;91.52
21838;BME280;11081;45.946;6.140;2023-03-14T09:01:36;94199.91;;;8.78;92.07
21838;BME280;11081;45.946;6.140;2023-03-14T09:04:04;94199.13;;;8.78;91.22
21838;BME280;11081;45.946;6.140;2023-03-14T09:06:33;94212.00;;;8.73;91.48
21838;BME280;11081;45.946;6.140;2023-03-14T09:09:01;94217.09;;;8.79;91.70
21838;BME280;11081;45.946;6.140;2023-03-14T09:11:30;94235.06;;;8.81;91.30
21838;BME280;11081;45.946;6.140;2023-03-14T09:13:58;94237.91;;;8.79;91.21
21838;BME280;11081;45.946;6.140;2023-03-14T09:16:26;94240.19;;;8.76;92.10
21838;BME280;11081;45.946;6.140;2023-03-14T09:18:55;94242.78;;;8.76;92.98
21838;BME280;11081;45.946;6.140;2023-03-14T09:21:26;94247.53;;;8.79;93.31
21838;BME280;11081;45.946;6.140;2023-03-14T09:23:54;94253.50;;;8.79;92.91
21838;BME280;11081;45.946;6.140;2023-03-14T09:26:22;94249.56;;;8.77;92.02
21838;BME280;11081;45.946;6.140;2023-03-14T09:28:50;94252.41;;;8.75;92.34
21838;BME280;11081;45.946;6.140;2023-03-14T09:31:18;94256.34;;;8.78;91.94
21838;BME280;11081;45.946;6.140;2023-03-14T09:33:46;94251.47;;;8.81;92.71
21838;BME280;11081;45.946;6.140;2023-03-14T09:36:15;94253.84;;;8.83;91.55
21838;BME280;11081;45.946;6.140;2023-03-14T09:38:43;94261.09;;;8.81;91.62
21838;BME280;11081;45.946;6.140;2023-03-14T09:41:15;94255.78;;;8.76;91.84
21838;BME280;11081;45.946;6.140;2023-03-14T09:43:45;94265.19;;;8.77;91.85
21838;BME280;11081;45.946;6.140;2023-03-14T09:46:14;94274.44;;;8.73;90.53
21838;BME280;11081;45.946;6.140;2023-03-14T09:48:43;94270.72;;;8.69;91.23
21838;BME280;11081;45.946;6.140;2023-03-14T09:51:14;94283.41;;;8.65;90.94
21838;BME280;11081;45.946;6.140;2023-03-14T09:53:46;94286.22;;;8.64;90.20
21838;BME280;11081;45.946;6.140;2023-03-14T09:56:17;94294.41;;;8.55;90.10
21838;BME280;11081;45.946;6.140;2023-03-14T09:58:50;94287.03;;;8.52;90.60
21838;BME280;11081;45.946;6.140;2023-03-14T10:01:22;94298.13;;;8.48;90.28
21838;BME280;11081;45.946;6.140;2023-03-14T10:03:54;94301.41;;;8.43;90.23
21838;BME280;11081;45.946;6.140;2023-03-14T10:06:26;94316.09;;;8.49;90.45
21838;BME280;11081;45.946;6.140;2023-03-14T10:08:56;94331.69;;;8.49;90.54
21838;BME280;11081;45.946;6.140;2023-03-14T10:11:25;94353.41;;;8.43;90.83
21838;BME280;11081;45.946;6.140;2023-03-14T10:14:05;94364.72;;;8.37;91.69
21838;BME280;11081;45.946;6.140;2023-03-14T10:16:36;94398.59;;;8.19;94.10
21838;BME280;11081;45.946;6.140;2023-03-14T10:19:09;94430.97;;;7.63;96.71
21838;BME280;11081;45.946;6.140;2023-03-14T10:21:39;94415.38;;;7.63;98.59
21838;BME280;11081;45.946;6.140;2023-03-14T10:24:19;94435.78;;;7.89;99.52
21838;BME280;11081;45.946;6.140;2023-03-14T10:26:48;94447.59;;;8.04;97.80
21838;BME280;11081;45.946;6.140;2023-03-14T10:29:17;94465.66;;;7.99;97.93
21838;BME280;11081;45.946;6.140;2023-03-14T10:31:48;94434.47;;;7.99;98.74
21838;BME280;11081;45.946;6.140;2023-03-14T10:34:24;94442.44;;;8.27;98.02
21838;BME280;11081;45.946;6.140;2023-03-14T10:36:54;94446.13;;;8.49;96.35
21838;BME280;11081;45.946;6.140;2023-03-14T10:39:27;94464.69;;;8.65;96.39
21838;BME280;11081;45.946;6.140;2023-03-14T10:42:04;94468.97;;;8.71;95.13
21838;BME280;11081;45.946;6.140;2023-03-14T10:44:34;94469.22;;;8.81;95.13
21838;BME280;11081;45.946;6.140;2023-03-14T10:47:03;94483.47;;;8.90;95.16
21838;BME280;11081;45.946;6.140;2023-03-14T10:49:33;94491.28;;;9.02;94.34
21838;BME280;11081;45.946;6.140;2023-03-14T10:52:13;94505.75;;;9.09;93.83
21838;BME280;11081;45.946;6.140;2023-03-14T10:54:47;94508.56;;;9.08;94.45
21838;BME280;11081;45.946;6.140;2023-03-14T10:57:16;94514.69;;;9.13;94.18
21838;BME280;11081;45.946;6.140;2023-03-14T10:59:47;94524.22;;;9.20;93.35
21838;BME280;11081;45.946;6.140;2023-03-14T11:02:27;94533.03;;;9.19;93.15
21838;BME280;11081;45.946;6.140;2023-03-14T11:05:08;94521.47;;;9.14;93.23
21838;BME280;11081;45.946;6.140;2023-03-14T11:07:41;94532.13;;;9.01;92.27
21838;BME280;11081;45.946;6.140;2023-03-14T11:10:19;94533.47;;;9.04;91.02
21838;BME280;11081;45.946;6.140;2023-03-14T11:12:55;94529.06;;;9.16;90.82
21838;BME280;11081;45.946;6.140;2023-03-14T11:15:32;94541.28;;;9.15;90.12
21838;BME280;11081;45.946;6.140;2023-03-14T11:18:27;94548.41;;;9.08;90.32
21838;BME280;11081;45.946;6.140;2023-03-14T11:21:02;94558.25;;;9.06;87.77
21838;BME280;11081;45.946;6.140;2023-03-14T11:23:41;94551.38;;;9.00;86.65
21838;BME280;11081;45.946;6.140;2023-03-14T11:26:24;94551.22;;;8.83;84.58
21838;BME280;11081;45.946;6.140;2023-03-14T11:28:57;94560.84;;;8.83;85.64
21838;BME280;11081;45.946;6.140;2023-03-14T11:31:27;94569.44;;;8.95;84.61
21838;BME280;11081;45.946;6.140;2023-03-14T11:34:01;94574.59;;;8.72;85.27
21838;BME280;11081;45.946;6.140;2023-03-14T11:36:37;94578.50;;;8.81;83.65
21838;BME280;11081;45.946;6.140;2023-03-14T11:39:11;94577.84;;;8.97;85.02
21838;BME280;11081;45.946;6.140;2023-03-14T11:41:46;94578.06;;;9.31;83.15
21838;BME280;11081;45.946;6.140;2023-03-14T11:44:17;94589.53;;;9.18;80.20
21838;BME280;11081;45.946;6.140;2023-03-14T11:46:50;94592.44;;;8.98;79.87
21838;BME280;11081;45.946;6.140;2023-03-14T11:49:30;94588.25;;;8.97;77.98
21838;BME280;11081;45.946;6.140;2023-03-14T11:52:03;94595.25;;;9.08;78.50
21838;BME280;11081;45.946;6.140;2023-03-14T11:54:39;94600.47;;;9.32;79.44
21838;BME280;11081;45.946;6.140;2023-03-14T11:57:12;94599.47;;;9.56;78.39
21838;BME280;11081;45.946;6.140;2023-03-14T11:59:50;94602.84;;;9.68;75.75
21838;BME280;11081;45.946;6.140;2023-03-14T12:02:24;94599.59;;;9.61;77.01
21838;BME280;11081;45.946;6.140;2023-03-14T12:05:14;94593.69;;;9.54;74.30
21838;BME280;11081;45.946;6.140;2023-03-14T12:08:10;94595.19;;;9.62;76.13
21838;BME280;11081;45.946;6.140;2023-03-14T12:10:48;94606.13;;;9.75;74.43
21838;BME280;11081;45.946;6.140;2023-03-14T12:13:19;94597.50;;;9.87;72.56
21838;BME280;11081;45.946;6.140;2023-03-14T12:15:49;94601.91;;;9.98;74.55
21838;BME280;11081;45.946;6.140;2023-03-14T12:18:27;94597.28;;;10.00;76.07
21838;BME280;11081;45.946;6.140;2023-03-14T12:20:57;94594.75;;;10.05;76.58
21838;BME280;11081;45.946;6.140;2023-03-14T12:23:27;94602.13;;;9.96;77.65
21838;BME280;11081;45.946;6.140;2023-03-14T12:26:15;94612.91;;;9.76;80.46
21838;BME280;11081;45.946;6.140;2023-03-14T12:28:49;94618.63;;;9.50;79.58
21838;BME280;11081;45.946;6.140;2023-03-14T12:31:41;94624.94;;;9.54;77.64
21838;BME280;11081;45.946;6.140;2023-03-14T12:34:28;94632.44;;;9.39;75.89
21838;BME280;11081;45.946;6.140;2023-03-14T12:37:06;94642.03;;;8.43;82.62
21838;BME280;11081;45.946;6.140;2023-03-14T12:39:45;94628.69;;;8.03;84.72
21838;BME280;11081;45.946;6.140;2023-03-14T12:42:21;94622.38;;;8.29;82.61
21838;BME280;11081;45.946;6.140;2023-03-14T12:45:22;94614.75;;;8.34;84.28
21838;BME280;11081;45.946;6.140;2023-03-14T12:48:00;94617.03;;;8.42;85.15
21838;BME280;11081;45.946;6.140;2023-03-14T12:50:33;94611.03;;;8.72;85.51
21838;BME280;11081;45.946;6.140;2023-03-14T12:53:41;94603.41;;;9.00;84.42
21838;BME280;11081;45.946;6.140;2023-03-14T12:56:28;94602.97;;;9.27;86.78
21838;BME280;11081;45.946;6.140;2023-03-14T12:59:09;94604.69;;;9.44;85.08
21838;BME280;11081;45.946;6.140;2023-03-14T13:01:48;94610.47;;;9.58;85.85
21838;BME280;11081;45.946;6.140;2023-03-14T13:04:27;94616.13;;;9.55;84.30
21838;BME280;11081;45.946;6.140;2023-03-14T13:07:11;94614.88;;;9.46;84.89
21838;BME280;11081;45.946;6.140;2023-03-14T13:10:00;94616.81;;;9.39;84.72
21838;BME280;11081;45.946;6.140;2023-03-14T13:12:34;94617.25;;;9.36;85.93
21838;BME280;11081;45.946;6.140;2023-03-14T13:15:15;94613.41;;;9.27;85.88
21838;BME280;11081;45.946;6.140;2023-03-14T13:17:47;94611.69;;;9.21;86.97
21838;BME280;11081;45.946;6.140;2023-03-14T13:20:21;94600.28;;;9.22;86.77
21838;BME280;11081;45.946;6.140;2023-03-14T13:22:50;94599.59;;;9.38;87.20
21838;BME280;11081;45.946;6.140;2023-03-14T13:25:18;94602.44;;;9.60;86.97
21838;BME280;11081;45.946;6.140;2023-03-14T13:27:48;94598.56;;;9.62;87.82
21838;BME280;11081;45.946;6.140;2023-03-14T13:30:24;94597.78;;;9.50;86.12
21838;BME280;11081;45.946;6.140;2023-03-14T13:32:55;94594.84;;;9.58;86.80
21838;BME280;11081;45.946;6.140;2023-03-14T13:35:26;94597.56;;;9.63;87.02
21838;BME280;11081;45.946;6.140;2023-03-14T13:37:56;94592.22;;;9.70;87.34
21838;BME280;11081;45.946;6.140;2023-03-14T13:40:37;94594.25;;;9.80;86.23